Aviation Digital Data Service (ADDS)

Output produced by METARs form (1424 UTC 07 December 2016)
found at http://aviationweather.gov/adds/metars/
 
KVQQ 071223Z 0712/0812 29004KT P6SM FEW025 BKN250 
     FM071500 29005KT P6SM SCT020 SCT250 
     FM080800 00000KT 1SM BR BKN003